Time;durP1;ratioP1;P1;durP2;ratioP2;P2;SDS_P1;SDS_P2;PMS_P1;PMS_P2;Temp;Humidity;BMP_temperature;BMP_pressure;BME280_temperature;BME280_humidity;BME280_pressure;Samples;Min_cycle;Max_cycle;Signal;HPM_P1;HPM_P2
2023/07/23 00:00:32;;;;;;;13.85;6.15;;;;;;;-146.27;94.84;82364.09;5070695;28;20506;-75
2023/07/23 00:02:57;;;;;;;8.70;4.97;;;;;;;-146.27;94.75;82384.19;5070570;28;20024;-75
2023/07/23 00:05:24;;;;;;;8.95;5.18;;;;;;;-146.27;95.02;82414.31;5070536;28;20043;-75
2023/07/23 00:07:50;;;;;;;10.00;4.70;;;;;;;-146.27;95.11;82376.16;5070385;28;20024;-75
2023/07/23 00:10:16;;;;;;;8.95;4.78;;;;;;;-146.27;95.26;82404.28;5070219;28;20040;-74
2023/07/23 00:12:41;;;;;;;11.75;4.60;;;;;;;-146.27;95.13;82394.22;5070480;28;20075;-75
2023/07/23 00:15:07;;;;;;;8.18;4.20;;;;;;;-146.27;95.26;82436.41;5070520;28;20021;-75
2023/07/23 00:17:32;;;;;;;9.40;4.85;;;;;;;-146.27;95.00;82432.41;5069261;28;20028;-75
2023/07/23 00:19:58;;;;;;;11.75;5.07;;;;;;;-146.27;94.79;82388.22;5070996;28;20364;-75
2023/07/23 00:22:23;;;;;;;10.32;5.32;;;;;;;-146.27;94.39;82376.16;5070472;28;20074;-75
2023/07/23 00:24:49;;;;;;;10.77;4.75;;;;;;;-146.27;94.29;82404.28;5070376;28;20027;-76
2023/07/23 00:27:14;;;;;;;8.77;4.18;;;;;;;-146.27;94.04;82325.94;5070330;28;20017;-76
2023/07/23 00:29:41;;;;;;;9.00;4.50;;;;;;;-146.27;93.68;82356.06;5070434;28;20472;-75
2023/07/23 00:32:07;;;;;;;6.68;4.30;;;;;;;-146.27;93.68;82398.25;5070274;28;20071;-76
2023/07/23 00:34:32;;;;;;;10.50;4.45;;;;;;;-146.27;93.74;82348.03;5068965;28;20028;-75
2023/07/23 00:36:58;;;;;;;8.48;4.22;;;;;;;-146.27;93.61;82396.25;5070360;28;20312;-75
2023/07/23 00:39:23;;;;;;;10.32;4.90;;;;;;;-146.27;93.79;82364.09;5070550;28;20429;-76
2023/07/23 00:41:49;;;;;;;6.18;4.63;;;;;;;-146.27;94.04;82404.28;5068721;28;20401;-76
2023/07/23 00:44:15;;;;;;;8.10;5.18;;;;;;;-146.27;93.91;82398.25;5069192;28;20039;-75
2023/07/23 00:46:40;;;;;;;8.40;4.53;;;;;;;-146.27;93.88;82372.13;5069112;28;20062;-75
2023/07/23 00:49:06;;;;;;;8.85;5.30;;;;;;;-146.27;93.65;82380.16;5070181;28;20031;-75
2023/07/23 00:51:33;;;;;;;8.15;4.82;;;;;;;-146.27;93.40;82360.09;5070070;28;20485;-75
2023/07/23 00:53:59;;;;;;;7.47;5.00;;;;;;;-146.27;93.70;82388.22;5070306;28;20085;-76
2023/07/23 00:56:26;;;;;;;9.38;5.10;;;;;;;-146.27;93.42;82378.16;5068738;28;20595;-75
2023/07/23 00:58:52;;;;;;;12.13;5.40;;;;;;;-146.27;93.62;82366.09;5070047;28;20396;-75
2023/07/23 01:01:18;;;;;;;11.43;5.38;;;;;;;-146.27;93.97;82362.09;5070070;28;20028;-76
2023/07/23 01:03:44;;;;;;;9.55;5.50;;;;;;;-146.27;94.00;82364.09;5069937;28;20074;-75
2023/07/23 01:06:11;;;;;;;13.00;5.18;;;;;;;-146.27;94.21;82392.22;5069060;28;20024;-75
2023/07/23 01:08:41;;;;;;;12.10;5.78;;;;;;;-146.27;94.40;82348.03;5069933;28;20033;-75
2023/07/23 01:11:07;;;;;;;12.10;5.90;;;;;;;-146.27;94.64;82392.22;5069504;28;20035;-75
2023/07/23 01:13:36;;;;;;;7.20;5.03;;;;;;;-146.27;94.62;82372.13;5069144;28;20511;-75
2023/07/23 01:16:07;;;;;;;15.82;5.63;;;;;;;-146.27;94.52;82384.19;5069345;28;20027;-75
2023/07/23 01:18:35;;;;;;;11.05;5.68;;;;;;;-146.27;95.13;82364.09;5069649;28;20379;-76
2023/07/23 01:21:01;;;;;;;11.43;6.05;;;;;;;-146.27;95.18;82331.97;5071398;28;20028;-75
2023/07/23 01:23:26;;;;;;;12.90;5.72;;;;;;;-146.27;95.28;82372.13;5073911;28;20033;-75
2023/07/23 01:25:51;;;;;;;12.48;5.97;;;;;;;-146.27;95.29;82388.22;5073994;28;20029;-75
2023/07/23 01:28:17;;;;;;;10.45;5.80;;;;;;;-146.27;95.81;82352.03;5073885;28;20039;-75
2023/07/23 01:30:42;;;;;;;14.40;5.85;;;;;;;-146.27;95.90;82380.16;5073691;28;20055;-75
2023/07/23 01:33:07;;;;;;;11.20;5.88;;;;;;;-146.27;95.91;82396.25;5073960;28;20074;-74
2023/07/23 01:35:33;;;;;;;11.18;6.30;;;;;;;-146.27;96.44;82408.28;5072761;28;20097;-75
2023/07/23 01:37:59;;;;;;;10.10;6.53;;;;;;;-146.27;96.54;82394.22;5074039;28;20028;-75
2023/07/23 01:40:25;;;;;;;8.73;6.10;;;;;;;-146.27;96.59;82384.19;5073934;28;20089;-75
2023/07/23 01:42:50;;;;;;;11.70;6.13;;;;;;;-146.27;96.49;82364.09;5073494;28;20024;-75
2023/07/23 01:45:15;;;;;;;9.20;5.32;;;;;;;-146.27;96.70;82388.22;5073491;28;20069;-75
2023/07/23 01:47:41;;;;;;;13.75;6.70;;;;;;;-146.27;96.49;82406.28;5072977;28;20028;-75
2023/07/23 01:50:07;;;;;;;10.10;5.85;;;;;;;-146.27;96.65;82400.25;5073285;28;20408;-75
2023/07/23 01:52:32;;;;;;;10.98;5.72;;;;;;;-146.27;96.68;82384.19;5071826;28;20351;-75
2023/07/23 01:54:58;;;;;;;10.88;6.20;;;;;;;-146.27;96.92;82394.22;5073319;28;20048;-75
2023/07/23 01:57:23;;;;;;;9.15;5.82;;;;;;;-146.27;96.57;82346.03;5073063;28;20373;-76
2023/07/23 01:59:49;;;;;;;12.10;5.72;;;;;;;-146.27;96.65;82378.16;5072975;28;20033;-75
2023/07/23 02:02:14;;;;;;;10.60;6.82;;;;;;;-146.27;96.92;82376.16;5071413;28;20020;-75
2023/07/23 02:04:39;;;;;;;12.40;5.57;;;;;;;-146.27;97.00;82376.16;5073505;28;20337;-75
2023/07/23 02:07:05;;;;;;;11.40;6.18;;;;;;;-146.27;97.08;82366.09;5072953;28;20032;-75
2023/07/23 02:09:30;;;;;;;8.68;6.13;;;;;;;-146.27;97.25;82380.16;5071221;28;20551;-75
2023/07/23 02:11:55;;;;;;;11.65;5.80;;;;;;;-146.27;97.84;82335.97;5072608;28;20039;-75
2023/07/23 02:14:21;;;;;;;9.65;5.43;;;;;;;-146.27;98.11;82384.19;5072661;28;20028;-76
2023/07/23 02:16:46;;;;;;;14.68;6.70;;;;;;;-146.27;97.82;82372.13;5072237;28;20059;-76
2023/07/23 02:19:13;;;;;;;12.02;6.20;;;;;;;-146.27;97.78;82350.03;5072697;28;20488;-75
2023/07/23 02:21:38;;;;;;;16.00;7.00;;;;;;;-146.27;97.91;82390.22;5072551;28;20028;-75
2023/07/23 02:24:05;;;;;;;12.73;6.30;;;;;;;-146.27;98.29;82333.97;5072586;28;20024;-75
2023/07/23 02:26:30;;;;;;;12.55;7.47;;;;;;;-146.27;98.29;82352.03;5072375;28;20093;-75
2023/07/23 02:28:56;;;;;;;11.95;6.53;;;;;;;-146.27;98.21;82368.13;5072528;28;20020;-75
2023/07/23 02:31:21;;;;;;;16.67;6.68;;;;;;;-146.27;97.87;82368.13;5071635;28;20047;-75
2023/07/23 02:33:46;;;;;;;14.77;6.32;;;;;;;-146.27;97.87;82360.09;5072298;28;20025;-75
2023/07/23 02:36:12;;;;;;;11.38;6.95;;;;;;;-146.27;98.47;82392.22;5071334;28;20388;-75
2023/07/23 02:38:37;;;;;;;10.38;6.22;;;;;;;-146.27;98.40;82376.16;5070941;28;20476;-75
2023/07/23 02:41:03;;;;;;;10.52;6.38;;;;;;;-146.27;98.25;82362.09;5072448;28;20028;-75
2023/07/23 02:43:28;;;;;;;13.40;5.93;;;;;;;-146.27;98.07;82368.13;5072317;28;20074;-75
2023/07/23 02:45:53;;;;;;;14.00;6.18;;;;;;;-146.27;97.88;82350.03;5072134;28;20060;-75
2023/07/23 02:48:19;;;;;;;14.43;5.93;;;;;;;-146.27;97.93;82368.13;5072059;28;20036;-75
2023/07/23 02:50:44;;;;;;;13.40;6.28;;;;;;;-146.27;98.15;82410.31;5072240;28;20123;-75
2023/07/23 02:53:09;;;;;;;12.73;6.30;;;;;;;-146.27;98.47;82396.25;5072276;28;20476;-75
2023/07/23 02:55:35;;;;;;;18.40;6.63;;;;;;;-146.27;98.19;82340.00;5070644;28;20033;-75
2023/07/23 02:58:03;;;;;;;12.95;6.32;;;;;;;-146.27;97.95;82390.22;5072089;28;20040;-75
2023/07/23 03:00:29;;;;;;;8.85;5.75;;;;;;;-146.27;98.17;82368.13;5072292;28;20024;-75
2023/07/23 03:02:54;;;;;;;11.65;5.70;;;;;;;-146.27;98.00;82340.00;5070612;28;20020;-75
2023/07/23 03:05:20;;;;;;;12.43;6.60;;;;;;;-146.27;98.07;82352.03;5071784;28;20353;-75
2023/07/23 03:07:46;;;;;;;12.63;6.25;;;;;;;-146.27;98.13;82372.13;5071892;28;20087;-75
2023/07/23 03:10:11;;;;;;;12.57;6.05;;;;;;;-146.27;97.91;82360.09;5071751;28;20050;-75
2023/07/23 03:12:37;;;;;;;11.80;6.90;;;;;;;-146.27;98.00;82331.97;5071530;28;20492;-75
2023/07/23 03:15:03;;;;;;;17.60;6.93;;;;;;;-146.27;97.94;82378.16;5071591;28;20408;-75
2023/07/23 03:17:28;;;;;;;9.57;6.45;;;;;;;-146.27;97.70;82384.19;5071772;28;20036;-75
2023/07/23 03:19:54;;;;;;;13.70;6.13;;;;;;;-146.27;97.77;82388.22;5071523;28;20024;-76
2023/07/23 03:22:19;;;;;;;10.95;5.93;;;;;;;-146.27;97.60;82382.19;5071839;28;20021;-75
2023/07/23 03:24:45;;;;;;;12.00;5.97;;;;;;;-146.27;97.56;82384.19;5070109;28;20024;-75
2023/07/23 03:27:11;;;;;;;11.43;5.65;;;;;;;-146.27;97.44;82382.19;5071312;28;20090;-75
2023/07/23 03:29:36;;;;;;;10.95;5.78;;;;;;;-146.27;97.53;82376.16;5071353;28;20036;-75
2023/07/23 03:32:02;;;;;;;13.35;6.28;;;;;;;-146.27;97.48;82404.28;5071371;28;20059;-75
2023/07/23 03:34:27;;;;;;;9.15;5.60;;;;;;;-146.27;97.38;82352.03;5071231;28;20062;-75
2023/07/23 03:36:53;;;;;;;11.82;5.68;;;;;;;-146.27;97.56;82372.13;5071161;28;20051;-76
2023/07/23 03:39:18;;;;;;;12.57;5.93;;;;;;;-146.27;97.29;82398.25;5071379;28;20386;-75
2023/07/23 03:41:47;;;;;;;11.25;5.65;;;;;;;-146.27;97.09;82368.13;5071262;28;20089;-75
2023/07/23 03:44:13;;;;;;;10.90;6.18;;;;;;;-146.27;96.91;82374.13;5070355;28;20499;-75
2023/07/23 03:47:20;;;;;;;8.65;5.22;;;;;;;-146.27;96.68;82340.00;5070790;28;20078;-75
2023/07/23 03:49:48;;;;;;;16.55;6.05;;;;;;;-146.27;96.53;82384.19;5070680;28;20072;-75
2023/07/23 03:52:14;;;;;;;8.77;5.35;;;;;;;-146.27;96.42;82380.16;5070473;28;20480;-75
2023/07/23 03:54:39;;;;;;;13.02;6.45;;;;;;;-146.27;96.79;82331.97;5070812;28;20106;-75
2023/07/23 03:57:05;;;;;;;10.68;5.22;;;;;;;-146.27;96.86;82325.94;5069449;28;20032;-75
2023/07/23 03:59:36;;;;;;;10.77;6.13;;;;;;;-146.27;96.65;82372.13;5070767;28;20028;-75
2023/07/23 04:02:01;;;;;;;14.27;5.45;;;;;;;-146.27;96.92;82356.06;5071006;28;20410;-75
2023/07/23 04:04:27;;;;;;;11.65;5.68;;;;;;;-146.27;96.53;82368.13;5068995;28;20032;-75
2023/07/23 04:06:52;;;;;;;10.75;5.93;;;;;;;-146.27;96.38;82348.03;5070309;28;20035;-75
2023/07/23 04:09:19;;;;;;;14.57;5.43;;;;;;;-146.27;96.36;82350.03;5068839;28;20028;-75
2023/07/23 04:11:44;;;;;;;15.48;6.20;;;;;;;-146.27;96.24;82372.13;5070708;28;20071;-75
2023/07/23 04:14:10;;;;;;;9.68;5.43;;;;;;;-146.27;96.05;82329.94;5070316;28;20460;-75
2023/07/23 04:16:35;;;;;;;9.45;5.10;;;;;;;-146.27;95.60;82360.09;5070221;28;20053;-75
2023/07/23 04:19:00;;;;;;;14.02;5.85;;;;;;;-146.27;95.15;82344.00;5069937;28;20120;-74
2023/07/23 04:21:26;;;;;;;13.32;5.45;;;;;;;-146.27;95.29;82331.97;5070208;28;20491;-75
2023/07/23 04:23:53;;;;;;;10.52;5.07;;;;;;;-146.27;95.13;82303.84;5070234;28;20021;-75
2023/07/23 04:26:19;;;;;;;9.77;5.30;;;;;;;-146.27;95.12;82335.97;5070153;28;20025;-75
2023/07/23 04:28:45;;;;;;;10.88;5.25;;;;;;;-146.27;94.73;82340.00;5070017;28;20059;-75
2023/07/23 04:31:11;;;;;;;13.45;5.28;;;;;;;-146.27;95.14;82315.88;5070089;28;20059;-75
2023/07/23 04:33:36;;;;;;;8.75;4.88;;;;;;;-146.27;95.13;82307.84;5068820;28;20036;-75
2023/07/23 04:36:07;;;;;;;29.05;6.20;;;;;;;-146.27;95.03;82344.00;5069826;28;20028;-75
2023/07/23 04:38:33;;;;;;;12.15;5.90;;;;;;;-146.27;95.26;82321.91;5069935;28;20361;-75
2023/07/23 04:40:59;;;;;;;12.13;5.72;;;;;;;-146.27;95.04;82299.81;5070168;28;20035;-75
2023/07/23 04:43:24;;;;;;;13.93;5.90;;;;;;;-146.27;94.91;82307.84;5069997;28;20024;-75
2023/07/23 04:45:49;;;;;;;9.27;5.63;;;;;;;-146.27;94.99;82281.75;5069633;28;20043;-75
2023/07/23 04:48:16;;;;;;;15.77;6.65;;;;;;;-146.27;94.66;82275.72;5068617;28;20105;-75
2023/07/23 04:50:42;;;;;;;13.82;6.07;;;;;;;-146.27;94.75;82323.91;5069729;28;20024;-75
2023/07/23 04:53:07;;;;;;;11.60;6.07;;;;;;;-146.27;95.02;82307.84;5069657;28;20029;-75
2023/07/23 04:55:33;;;;;;;19.38;6.95;;;;;;;-146.27;94.61;82279.72;5069467;28;20036;-74
2023/07/23 04:57:58;;;;;;;11.07;5.60;;;;;;;-146.27;94.51;82299.81;5069691;28;20054;-75
2023/07/23 05:00:24;;;;;;;17.15;6.88;;;;;;;-146.27;94.99;82307.84;5069736;28;20076;-75
2023/07/23 05:02:50;;;;;;;17.70;6.88;;;;;;;-146.27;95.04;82307.84;5069894;28;20062;-75
2023/07/23 05:05:15;;;;;;;13.38;7.35;;;;;;;-146.27;94.91;82279.72;5069839;28;20431;-75
2023/07/23 05:07:40;;;;;;;9.50;5.63;;;;;;;-146.27;94.44;82307.84;5068294;28;20094;-76
2023/07/23 05:10:06;;;;;;;10.27;5.95;;;;;;;-146.27;94.20;82346.03;5069440;28;20050;-75
2023/07/23 05:12:32;;;;;;;18.85;5.47;;;;;;;-146.27;94.00;82311.88;5069521;28;20040;-75
2023/07/23 05:15:12;;;;;;;16.13;5.53;;;;;;;-146.27;94.24;82370.13;5069581;28;20036;-75
2023/07/23 05:17:39;;;;;;;9.85;5.50;;;;;;;-146.27;94.95;82394.22;5069556;28;20111;-76
2023/07/23 05:20:06;;;;;;;9.68;5.45;;;;;;;-146.27;94.95;82440.44;5069217;28;20035;-75
2023/07/23 05:22:33;;;;;;;16.27;5.72;;;;;;;-146.27;95.40;82418.34;5069271;28;20032;-75
2023/07/23 05:24:58;;;;;;;14.38;6.13;;;;;;;-146.27;96.35;82368.13;5069045;28;20032;-74
2023/07/23 05:27:23;;;;;;;12.63;5.93;;;;;;;-146.27;96.49;82396.25;5069512;28;20028;-75
2023/07/23 05:29:49;;;;;;;13.05;5.72;;;;;;;-146.27;96.68;82384.19;5069676;28;20028;-75
2023/07/23 05:32:14;;;;;;;12.73;5.55;;;;;;;-146.27;97.34;82408.28;5069566;28;20021;-75
2023/07/23 05:34:39;;;;;;;13.35;6.57;;;;;;;-146.27;98.09;82442.44;5069440;28;20468;-75
2023/07/23 05:37:05;;;;;;;12.45;6.35;;;;;;;-146.27;98.32;82446.47;5069041;28;20029;-74
2023/07/23 05:39:30;;;;;;;11.63;5.47;;;;;;;-146.27;98.50;82424.38;5068995;28;20054;-75
2023/07/23 05:41:56;;;;;;;13.00;6.40;;;;;;;-146.27;99.19;82472.56;5069721;28;20032;-74
2023/07/23 05:44:21;;;;;;;13.55;5.70;;;;;;;-146.27;100.00;82476.59;5069847;28;20013;-75
2023/07/23 05:46:46;;;;;;;11.68;6.47;;;;;;;-146.27;100.00;82516.78;5069437;28;20048;-75
2023/07/23 05:49:12;;;;;;;10.30;6.43;;;;;;;-146.27;100.00;82564.97;5069187;28;20029;-74
2023/07/23 05:51:37;;;;;;;14.25;5.88;;;;;;;-146.27;100.00;82528.81;5069026;28;20025;-74
2023/07/23 05:54:03;;;;;;;15.93;6.38;;;;;;;-146.27;100.00;82514.75;5068897;28;20051;-74
2023/07/23 05:56:29;;;;;;;12.50;7.10;;;;;;;-146.27;100.00;82540.88;5069221;28;20029;-74
2023/07/23 05:58:55;;;;;;;9.35;5.82;;;;;;;-146.27;100.00;82530.84;5069479;28;20059;-73
2023/07/23 06:01:20;;;;;;;15.32;6.97;;;;;;;-146.27;100.00;82498.69;5069155;28;20028;-74
2023/07/23 06:03:45;;;;;;;15.23;6.30;;;;;;;-146.27;100.00;82480.59;5069028;28;20025;-74
2023/07/23 06:06:11;;;;;;;13.05;6.93;;;;;;;-146.27;100.00;82536.84;5069386;28;20040;-74
2023/07/23 06:08:36;;;;;;;14.30;7.00;;;;;;;-146.27;100.00;82500.69;5072530;28;20368;-75
2023/07/23 06:11:01;;;;;;;14.77;6.70;;;;;;;-146.27;100.00;82488.66;5073226;28;20032;-74
2023/07/23 06:13:27;;;;;;;12.32;6.63;;;;;;;-146.27;100.00;82484.63;5071262;28;20052;-74
2023/07/23 06:15:52;;;;;;;13.38;6.30;;;;;;;-146.27;100.00;82484.63;5072861;28;20032;-74
2023/07/23 06:18:18;;;;;;;12.52;6.55;;;;;;;-146.27;100.00;82500.69;5072992;28;20073;-74
2023/07/23 06:20:43;;;;;;;13.93;7.05;;;;;;;-146.27;100.00;82500.69;5071361;28;20251;-74
2023/07/23 06:23:08;;;;;;;12.00;6.00;;;;;;;-146.27;100.00;82464.53;5072609;28;20115;-74
2023/07/23 06:25:34;;;;;;;13.45;7.10;;;;;;;-146.27;100.00;82458.50;5072724;28;20024;-74
2023/07/23 06:27:59;;;;;;;16.20;6.30;;;;;;;-146.27;100.00;82484.63;5072433;28;20031;-74
2023/07/23 06:30:25;;;;;;;12.75;6.32;;;;;;;-146.27;100.00;82482.63;5072738;28;20024;-74
2023/07/23 06:32:50;;;;;;;10.50;6.43;;;;;;;-146.27;100.00;82508.72;5072763;28;20239;-74
2023/07/23 06:35:15;;;;;;;12.05;6.70;;;;;;;-146.27;100.00;82514.75;5072607;28;20021;-74
2023/07/23 06:37:41;;;;;;;14.35;6.53;;;;;;;-146.27;100.00;82498.69;5072698;28;20043;-75
2023/07/23 06:40:07;;;;;;;13.88;7.85;;;;;;;-146.27;100.00;82500.69;5072674;28;20570;-74
2023/07/23 06:42:32;;;;;;;10.80;6.68;;;;;;;-146.27;100.00;82488.66;5072398;28;20511;-74
2023/07/23 06:44:58;;;;;;;13.60;6.50;;;;;;;-146.27;100.00;82544.91;5072404;28;20040;-74
2023/07/23 06:47:23;;;;;;;13.98;7.03;;;;;;;-146.27;100.00;82492.66;5071201;28;20124;-75
2023/07/23 06:49:49;;;;;;;19.00;6.80;;;;;;;-146.27;100.00;82512.75;5072390;28;20078;-75
2023/07/23 06:52:14;;;;;;;12.98;5.88;;;;;;;-146.27;100.00;82518.78;5072109;28;20399;-75
2023/07/23 06:54:42;;;;;;;17.55;6.90;;;;;;;-146.27;100.00;82464.53;5072228;28;20440;-75
2023/07/23 06:57:08;;;;;;;10.30;6.00;;;;;;;-146.27;100.00;82484.63;5070925;28;20360;-74
2023/07/23 06:59:34;;;;;;;10.75;6.50;;;;;;;-146.27;100.00;82404.28;5070872;28;20017;-74
2023/07/23 07:01:59;;;;;;;19.35;6.68;;;;;;;-146.27;100.00;82460.53;5072039;28;20035;-75
2023/07/23 07:04:24;;;;;;;15.90;6.88;;;;;;;-146.27;100.00;82404.28;5071994;28;20024;-75
2023/07/23 07:06:50;;;;;;;17.92;6.57;;;;;;;-146.27;100.00;82390.22;5071947;28;20043;-75
2023/07/23 07:09:15;;;;;;;14.20;6.50;;;;;;;-146.27;99.70;82422.34;5072005;28;20556;-75
2023/07/23 07:11:42;;;;;;;13.77;6.13;;;;;;;-146.27;99.06;82420.34;5071791;28;20028;-75
2023/07/23 07:14:07;;;;;;;9.82;6.10;;;;;;;-146.27;98.48;82337.97;5071412;28;20031;-75
2023/07/23 07:16:33;;;;;;;13.00;5.63;;;;;;;-146.27;98.19;82372.13;5071531;28;20055;-75
2023/07/23 07:18:58;;;;;;;12.40;5.82;;;;;;;-146.27;97.68;82368.13;5070595;28;20559;-74
2023/07/23 07:21:24;;;;;;;11.75;6.03;;;;;;;-146.27;97.46;82350.03;5071272;28;20031;-75
2023/07/23 07:23:49;;;;;;;11.82;5.43;;;;;;;-146.27;97.68;82370.13;5071602;28;20107;-75
2023/07/23 07:26:14;;;;;;;12.02;5.10;;;;;;;-146.27;97.10;82350.03;5071918;28;20037;-75
2023/07/23 07:28:40;;;;;;;8.88;5.57;;;;;;;-146.27;96.41;82307.84;5071253;28;20460;-75
2023/07/23 07:31:05;;;;;;;9.23;5.38;;;;;;;-146.27;95.82;82315.88;5071348;28;20047;-74
2023/07/23 07:33:31;;;;;;;9.88;5.25;;;;;;;-146.27;95.20;82348.03;5071958;28;20036;-76
2023/07/23 07:35:58;;;;;;;11.82;5.65;;;;;;;-146.27;95.15;82283.75;5071427;28;20028;-75
2023/07/23 07:38:25;;;;;;;12.88;5.50;;;;;;;-146.27;94.99;82275.72;5071401;28;20028;-76
2023/07/23 07:40:51;;;;;;;9.73;5.10;;;;;;;-146.27;95.12;82285.75;5071401;28;20025;-75
2023/07/23 07:43:17;;;;;;;12.07;5.40;;;;;;;-146.27;94.61;82265.66;5070945;28;20024;-75
2023/07/23 07:45:46;;;;;;;10.27;5.55;;;;;;;-146.27;94.40;82311.88;5069641;28;20060;-75
2023/07/23 07:48:12;;;;;;;12.25;5.78;;;;;;;-146.27;94.21;82271.69;5071115;28;20099;-75
2023/07/23 07:50:37;;;;;;;10.85;5.15;;;;;;;-146.27;93.57;82267.69;5071107;28;20115;-75
2023/07/23 07:53:02;;;;;;;11.60;5.63;;;;;;;-146.27;93.54;82249.59;5070766;28;20028;-75
2023/07/23 07:55:28;;;;;;;8.68;4.70;;;;;;;-146.27;93.22;82265.66;5071140;28;20035;-75
2023/07/23 07:57:53;;;;;;;7.82;4.90;;;;;;;-146.27;93.21;82251.59;5071288;28;20147;-75
2023/07/23 08:00:19;;;;;;;6.45;4.60;;;;;;;-146.27;93.09;82171.25;5070941;28;20449;-75
2023/07/23 08:02:45;;;;;;;9.13;5.00;;;;;;;-146.27;93.12;82247.59;5071581;28;20036;-75
2023/07/23 08:05:11;;;;;;;8.88;5.22;;;;;;;-146.27;93.19;82235.53;5071174;28;20103;-75
2023/07/23 08:07:37;;;;;;;7.93;5.25;;;;;;;-146.27;92.90;82197.38;5071681;28;20029;-75
2023/07/23 08:10:03;;;;;;;9.55;5.10;;;;;;;-146.27;92.72;82245.59;5071438;28;20460;-75
2023/07/23 08:12:29;;;;;;;8.23;4.60;;;;;;;-146.27;92.61;82219.47;5071067;28;20052;-75
2023/07/23 08:14:55;;;;;;;7.30;4.50;;;;;;;-146.27;92.78;82195.38;5070537;28;20055;-75
2023/07/23 08:17:21;;;;;;;8.95;5.20;;;;;;;-146.27;92.58;82175.28;5070204;28;20462;-75
2023/07/23 08:19:46;;;;;;;7.65;4.82;;;;;;;-146.27;92.74;82195.38;5069934;28;20052;-75
2023/07/23 08:22:13;;;;;;;9.55;5.32;;;;;;;-146.27;93.23;82191.34;5070405;28;20029;-75
2023/07/23 08:24:38;;;;;;;10.30;5.43;;;;;;;-146.27;93.45;82243.56;5070596;28;20391;-75
2023/07/23 08:27:07;;;;;;;8.02;5.07;;;;;;;-146.27;93.24;82175.28;5070495;28;20107;-75
2023/07/23 08:29:34;;;;;;;6.47;4.68;;;;;;;-146.27;92.58;82175.28;5070056;28;20112;-74
2023/07/23 08:32:01;;;;;;;8.52;5.40;;;;;;;-146.27;92.97;82185.31;5070354;28;20369;-75
2023/07/23 08:34:27;;;;;;;12.45;5.55;;;;;;;-146.27;93.54;82207.41;5069077;28;20036;-74
2023/07/23 08:36:54;;;;;;;8.02;5.07;;;;;;;-146.27;93.25;82175.28;5070279;28;20056;-75
2023/07/23 08:39:20;;;;;;;8.77;5.03;;;;;;;-146.27;93.10;82131.09;5070261;28;20498;-74
2023/07/23 08:42:14;;;;;;;11.75;5.25;;;;;;;-146.27;93.64;82171.25;5069089;28;20082;-74
2023/07/23 08:44:57;;;;;;;8.75;4.97;;;;;;;-146.27;93.47;82167.25;5070376;28;20148;-74
2023/07/23 08:47:27;;;;;;;9.40;5.82;;;;;;;-146.27;93.22;82171.25;5070461;28;20614;-74
2023/07/23 08:49:53;;;;;;;8.82;5.88;;;;;;;-146.27;93.18;82141.13;5070407;28;20115;-74
2023/07/23 08:52:19;;;;;;;7.35;5.15;;;;;;;-146.27;93.34;82121.03;5070263;28;20166;-74
2023/07/23 08:54:46;;;;;;;7.47;4.70;;;;;;;-146.27;93.41;82135.09;5070617;28;20130;-74
2023/07/23 08:57:11;;;;;;;11.68;5.20;;;;;;;-146.27;93.57;82131.09;5070037;28;20028;-75
2023/07/23 08:59:39;;;;;;;9.70;5.65;;;;;;;-146.27;93.32;82109.00;5070038;28;20024;-74
2023/07/23 09:02:07;;;;;;;10.95;5.78;;;;;;;-146.27;93.20;82111.00;5070301;28;20070;-74
2023/07/23 09:04:34;;;;;;;8.98;5.35;;;;;;;-146.27;93.87;82151.16;5069456;28;20034;-74
2023/07/23 09:07:01;;;;;;;12.75;5.38;;;;;;;-146.27;93.92;82135.09;5069372;28;20024;-72
2023/07/23 09:09:26;;;;;;;7.75;5.63;;;;;;;-146.27;93.99;82181.31;5060012;28;20484;-74
2023/07/23 09:11:52;;;;;;;7.03;5.68;;;;;;;-146.27;94.19;82119.03;5069699;28;20043;-73
2023/07/23 09:14:23;;;;;;;6.47;5.25;;;;;;;-146.27;93.33;82096.94;5069691;28;20036;-74
2023/07/23 09:16:49;;;;;;;11.38;5.07;;;;;;;-146.27;93.84;82094.94;5068786;28;20040;-74
2023/07/23 09:19:23;;;;;;;6.22;4.90;;;;;;;-146.27;94.49;82135.09;5068893;28;20016;-74
2023/07/23 09:21:48;;;;;;;8.18;4.60;;;;;;;-146.27;94.38;82100.97;5063898;28;20023;-74
2023/07/23 09:24:15;;;;;;;7.82;4.40;;;;;;;-146.27;95.91;82151.16;5069012;28;20468;-73
2023/07/23 09:26:41;;;;;;;8.95;4.70;;;;;;;-146.27;96.90;82151.16;5069052;28;20029;-74
2023/07/23 09:29:08;;;;;;;6.53;4.38;;;;;;;-146.27;97.43;82175.28;5068730;28;20480;-74
2023/07/23 09:31:35;;;;;;;6.75;5.13;;;;;;;-146.27;98.76;82197.38;5068769;28;20025;-74
2023/07/23 09:34:02;;;;;;;8.30;5.40;;;;;;;-146.27;99.96;82227.50;5068012;28;20093;-72
2023/07/23 09:36:29;;;;;;;8.60;5.80;;;;;;;-146.27;100.00;82215.44;5069840;28;20028;-74
2023/07/23 09:39:05;;;;;;;11.50;5.97;;;;;;;-146.27;100.00;82211.44;5069682;28;20074;-74
2023/07/23 09:41:36;;;;;;;7.80;5.82;;;;;;;-146.27;100.00;82221.47;5070307;28;20032;-74
2023/07/23 09:44:11;;;;;;;7.97;6.07;;;;;;;-146.27;100.00;82203.41;5072781;28;20040;-74
2023/07/23 09:46:45;;;;;;;8.18;5.95;;;;;;;-146.27;100.00;82183.31;5073639;28;20052;-73
2023/07/23 09:49:11;;;;;;;7.40;5.65;;;;;;;-146.27;100.00;82195.38;5082843;28;20082;-73
2023/07/23 09:51:49;;;;;;;9.10;6.45;;;;;;;-146.27;100.00;82189.34;5070872;28;20027;-74
2023/07/23 09:54:16;;;;;;;10.20;6.05;;;;;;;-146.27;100.00;82153.19;5073419;28;20032;-73
2023/07/23 09:56:44;;;;;;;8.43;6.47;;;;;;;-146.27;100.00;82133.09;5072467;28;20021;-74
2023/07/23 09:59:10;;;;;;;9.70;6.70;;;;;;;-146.27;100.00;82193.34;5072880;28;20029;-73
2023/07/23 10:01:37;;;;;;;9.35;6.82;;;;;;;-146.27;100.00;82131.09;5072669;28;20091;-73
2023/07/23 10:04:04;;;;;;;9.48;6.97;;;;;;;-146.27;100.00;82161.22;5073138;28;20031;-73
2023/07/23 10:06:30;;;;;;;8.23;5.80;;;;;;;-146.27;100.00;82187.31;5073183;28;20499;-73
2023/07/23 10:08:55;;;;;;;9.00;6.22;;;;;;;-146.27;100.00;82159.22;5072516;28;20020;-73
2023/07/23 10:11:21;;;;;;;11.38;5.70;;;;;;;-146.27;100.00;82092.91;5072548;28;20040;-74
2023/07/23 10:13:51;;;;;;;8.93;5.75;;;;;;;-146.27;99.91;82106.97;5088396;28;20056;-74
2023/07/23 10:16:39;;;;;;;8.75;6.60;;;;;;;-146.27;99.56;82054.75;5066479;28;20024;-74
2023/07/23 10:19:05;;;;;;;9.98;6.20;;;;;;;-146.27;98.81;82054.75;5052357;28;20389;-74
2023/07/23 10:21:33;;;;;;;8.00;5.60;;;;;;;-146.27;99.06;82038.69;5071101;28;20575;-74
2023/07/23 10:23:59;;;;;;;7.15;5.53;;;;;;;-146.27;99.22;82022.63;5072970;28;20039;-74
2023/07/23 10:26:39;;;;;;;12.55;6.30;;;;;;;-146.27;99.94;82038.69;5072687;28;20462;-74
2023/07/23 10:29:11;;;;;;;12.38;5.55;;;;;;;-146.27;100.00;82054.75;5071327;28;20031;-75
2023/07/23 10:31:38;;;;;;;7.70;5.97;;;;;;;-146.27;99.54;82042.69;5072041;28;20040;-74
2023/07/23 10:34:40;;;;;;;7.18;5.55;;;;;;;-146.27;99.51;82000.53;5072743;28;20028;-77
2023/07/23 10:37:18;;;;;;;6.25;5.13;;;;;;;-146.27;100.00;81998.50;5060025;28;20032;-75
2023/07/23 10:39:47;;;;;;;8.07;5.65;;;;;;;-146.27;100.00;82022.63;5071273;28;20047;-75
2023/07/23 10:42:28;;;;;;;6.38;4.90;;;;;;;-146.27;100.00;81972.41;5071199;28;20104;-76
2023/07/23 10:45:21;;;;;;;8.35;4.75;;;;;;;-146.27;99.39;82002.53;5071701;28;20500;-74
2023/07/23 10:47:47;;;;;;;6.13;4.78;;;;;;;-146.27;99.40;81898.09;5071100;28;20085;-76
2023/07/23 10:50:14;;;;;;;8.60;4.70;;;;;;;-146.27;98.56;81908.13;5071016;28;20048;-74
2023/07/23 10:52:43;;;;;;;7.22;5.20;;;;;;;-146.27;97.75;81851.88;5068450;28;20021;-75
2023/07/23 10:55:09;;;;;;;10.43;4.57;;;;;;;-146.27;96.85;81781.59;5068691;28;20048;-75
2023/07/23 10:57:38;;;;;;;7.20;4.65;;;;;;;-146.27;96.21;81785.59;5070861;28;20024;-74
2023/07/23 11:00:17;;;;;;;7.22;4.25;;;;;;;-146.27;94.61;81741.41;5070058;28;20028;-74
2023/07/23 11:02:49;;;;;;;6.00;4.32;;;;;;;-146.27;94.17;81715.31;5070759;28;20024;-74
2023/07/23 11:05:15;;;;;;;5.80;4.22;;;;;;;-146.27;93.59;81705.28;5071549;28;20434;-74
2023/07/23 11:07:40;;;;;;;5.82;4.50;;;;;;;-146.27;92.48;81651.03;5072238;28;20107;-74
2023/07/23 11:10:20;;;;;;;8.32;4.28;;;;;;;-146.27;91.82;81636.97;5072016;28;20035;-74